sensor_id;sensor_type;location;lat;lon;timestamp;pressure;altitude;pressure_sealevel;temperature;humidity
22930;BME280;11630;42.660;23.292;2023-05-23T00:01:12;68988.13;;;13.16;100.00
22930;BME280;11630;42.660;23.292;2023-05-23T00:03:45;68936.03;;;12.72;100.00
22930;BME280;11630;42.660;23.292;2023-05-23T00:06:18;68891.09;;;12.32;100.00
22930;BME280;11630;42.660;23.292;2023-05-23T00:08:46;68896.54;;;12.32;100.00
22930;BME280;11630;42.660;23.292;2023-05-23T00:11:17;68900.89;;;12.31;100.00
22930;BME280;11630;42.660;23.292;2023-05-23T00:13:48;68919.16;;;12.52;100.00
22930;BME280;11630;42.660;23.292;2023-05-23T00:16:19;68926.78;;;12.61;100.00
22930;BME280;11630;42.660;23.292;2023-05-23T00:18:50;68945.84;;;12.79;100.00
22930;BME280;11630;42.660;23.292;2023-05-23T00:21:21;68950.76;;;12.83;100.00
22930;BME280;11630;42.660;23.292;2023-05-23T00:23:52;68958.14;;;12.94;100.00
22930;BME280;11630;42.660;23.292;2023-05-23T00:26:22;68963.05;;;12.93;100.00
22930;BME280;11630;42.660;23.292;2023-05-23T00:28:54;68968.50;;;12.98;100.00
22930;BME280;11630;42.660;23.292;2023-05-23T00:31:23;68970.13;;;13.00;100.00
22930;BME280;11630;42.660;23.292;2023-05-23T00:33:54;68956.52;;;12.90;100.00
22930;BME280;11630;42.660;23.292;2023-05-23T00:36:25;68911.79;;;12.46;100.00
22930;BME280;11630;42.660;23.292;2023-05-23T00:38:56;68886.72;;;12.26;100.00
22930;BME280;11630;42.660;23.292;2023-05-23T00:41:27;68887.00;;;12.23;100.00
22930;BME280;11630;42.660;23.292;2023-05-23T00:43:58;68901.44;;;12.39;100.00
22930;BME280;11630;42.660;23.292;2023-05-23T00:46:30;68917.79;;;12.54;100.00
22930;BME280;11630;42.660;23.292;2023-05-23T00:49:01;68938.50;;;12.63;100.00
22930;BME280;11630;42.660;23.292;2023-05-23T00:51:33;68937.67;;;12.69;100.00
22930;BME280;11630;42.660;23.292;2023-05-23T00:54:06;68931.95;;;12.67;100.00
22930;BME280;11630;42.660;23.292;2023-05-23T00:56:39;68941.48;;;12.72;100.00
22930;BME280;11630;42.660;23.292;2023-05-23T00:59:09;68912.61;;;12.53;100.00
22930;BME280;11630;42.660;23.292;2023-05-23T01:01:41;68914.78;;;12.48;100.00
22930;BME280;11630;42.660;23.292;2023-05-23T01:04:13;68906.06;;;12.40;100.00
22930;BME280;11630;42.660;23.292;2023-05-23T01:06:44;68887.55;;;12.30;100.00
22930;BME280;11630;42.660;23.292;2023-05-23T01:09:18;68874.20;;;12.15;100.00
22930;BME280;11630;42.660;23.292;2023-05-23T01:15:08;68896.53;;;12.35;100.00
22930;BME280;11630;42.660;23.292;2023-05-23T01:20:26;68920.25;;;12.53;100.00
22930;BME280;11630;42.660;23.292;2023-05-23T01:23:06;68912.06;;;12.48;100.00
22930;BME280;11630;42.660;23.292;2023-05-23T01:28:30;68895.71;;;12.33;100.00
22930;BME280;11630;42.660;23.292;2023-05-23T01:30:56;68870.67;;;12.15;100.00
22930;BME280;11630;42.660;23.292;2023-05-23T01:33:27;68866.57;;;12.03;100.00
22930;BME280;11630;42.660;23.292;2023-05-23T01:36:00;68893.81;;;12.32;100.00
22930;BME280;11630;42.660;23.292;2023-05-23T01:38:31;68894.91;;;12.33;100.00
22930;BME280;11630;42.660;23.292;2023-05-23T01:41:02;68915.60;;;12.52;100.00
22930;BME280;11630;42.660;23.292;2023-05-23T01:43:32;68921.88;;;12.57;100.00
22930;BME280;11630;42.660;23.292;2023-05-23T01:46:04;68936.86;;;12.74;100.00
22930;BME280;11630;42.660;23.292;2023-05-23T01:48:35;68938.23;;;12.64;100.00
22930;BME280;11630;42.660;23.292;2023-05-23T01:51:08;68937.41;;;12.67;100.00
22930;BME280;11630;42.660;23.292;2023-05-23T01:53:39;68934.14;;;12.69;100.00
22930;BME280;11630;42.660;23.292;2023-05-23T01:56:11;68913.42;;;12.48;100.00
22930;BME280;11630;42.660;23.292;2023-05-23T01:58:45;68875.55;;;12.17;100.00
22930;BME280;11630;42.660;23.292;2023-05-23T02:01:16;68831.44;;;11.72;100.00
22930;BME280;11630;42.660;23.292;2023-05-23T02:03:47;68837.99;;;11.83;100.00
22930;BME280;11630;42.660;23.292;2023-05-23T02:06:18;68857.05;;;12.00;100.00
22930;BME280;11630;42.660;23.292;2023-05-23T02:08:49;68869.84;;;12.11;100.00
22930;BME280;11630;42.660;23.292;2023-05-23T02:11:19;68884.00;;;12.26;100.00
22930;BME280;11630;42.660;23.292;2023-05-23T02:13:50;68892.98;;;12.33;100.00
22930;BME280;11630;42.660;23.292;2023-05-23T02:16:21;68901.45;;;12.34;100.00
22930;BME280;11630;42.660;23.292;2023-05-23T02:18:52;68889.17;;;12.29;100.00
22930;BME280;11630;42.660;23.292;2023-05-23T02:21:24;68909.61;;;12.44;100.00
22930;BME280;11630;42.660;23.292;2023-05-23T02:23:54;68892.72;;;12.29;100.00
22930;BME280;11630;42.660;23.292;2023-05-23T02:26:25;68885.10;;;12.20;100.00
22930;BME280;11630;42.660;23.292;2023-05-23T02:28:56;68849.42;;;11.96;100.00
22930;BME280;11630;42.660;23.292;2023-05-23T02:31:29;68853.77;;;11.95;100.00
22930;BME280;11630;42.660;23.292;2023-05-23T02:34:01;68843.70;;;11.89;100.00
22930;BME280;11630;42.660;23.292;2023-05-23T02:36:32;68857.31;;;12.02;100.00
22930;BME280;11630;42.660;23.292;2023-05-23T02:39:04;68878.56;;;12.19;100.00
22930;BME280;11630;42.660;23.292;2023-05-23T02:41:34;68888.64;;;12.27;100.00
22930;BME280;11630;42.660;23.292;2023-05-23T02:44:05;68880.20;;;12.18;100.00
22930;BME280;11630;42.660;23.292;2023-05-23T02:46:36;68882.64;;;12.19;100.00
22930;BME280;11630;42.660;23.292;2023-05-23T02:49:06;68858.95;;;12.03;100.00
22930;BME280;11630;42.660;23.292;2023-05-23T02:51:39;68879.11;;;12.12;100.00
22930;BME280;11630;42.660;23.292;2023-05-23T02:54:10;68848.05;;;11.86;100.00
22930;BME280;11630;42.660;23.292;2023-05-23T02:56:41;68832.80;;;11.77;100.00
22930;BME280;11630;42.660;23.292;2023-05-23T02:59:11;68827.36;;;11.72;100.00
22930;BME280;11630;42.660;23.292;2023-05-23T03:01:42;68816.75;;;11.66;100.00
22930;BME280;11630;42.660;23.292;2023-05-23T03:04:12;68811.30;;;11.56;100.00
22930;BME280;11630;42.660;23.292;2023-05-23T03:06:44;68806.95;;;11.52;100.00
22930;BME280;11630;42.660;23.292;2023-05-23T03:09:15;68769.37;;;11.23;100.00
22930;BME280;11630;42.660;23.292;2023-05-23T03:11:46;68799.58;;;11.44;100.00
22930;BME280;11630;42.660;23.292;2023-05-23T03:14:17;68784.34;;;11.30;100.00
22930;BME280;11630;42.660;23.292;2023-05-23T03:16:48;68787.32;;;11.34;100.00
22930;BME280;11630;42.660;23.292;2023-05-23T03:19:19;68789.23;;;11.35;100.00
22930;BME280;11630;42.660;23.292;2023-05-23T03:21:50;68777.80;;;11.29;100.00
22930;BME280;11630;42.660;23.292;2023-05-23T03:24:21;68792.22;;;11.41;100.00
22930;BME280;11630;42.660;23.292;2023-05-23T03:26:52;68781.62;;;11.28;100.00
22930;BME280;11630;42.660;23.292;2023-05-23T03:29:23;68784.06;;;11.31;100.00
22930;BME280;11630;42.660;23.292;2023-05-23T03:31:54;68793.31;;;11.42;100.00
22930;BME280;11630;42.660;23.292;2023-05-23T03:34:25;68793.58;;;11.41;100.00
22930;BME280;11630;42.660;23.292;2023-05-23T03:36:56;68807.48;;;11.55;100.00
22930;BME280;11630;42.660;23.292;2023-05-23T03:39:26;68821.37;;;11.69;100.00
22930;BME280;11630;42.660;23.292;2023-05-23T03:41:57;68841.52;;;11.85;100.00
22930;BME280;11630;42.660;23.292;2023-05-23T03:44:28;68868.76;;;12.07;100.00
22930;BME280;11630;42.660;23.292;2023-05-23T03:46:59;68848.88;;;11.88;100.00
22930;BME280;11630;42.660;23.292;2023-05-23T03:49:30;68853.51;;;11.93;100.00
22930;BME280;11630;42.660;23.292;2023-05-23T03:52:00;68837.70;;;11.79;100.00
22930;BME280;11630;42.660;23.292;2023-05-23T03:54:31;68826.27;;;11.68;100.00
22930;BME280;11630;42.660;23.292;2023-05-23T03:57:01;68826.80;;;11.69;100.00
22930;BME280;11630;42.660;23.292;2023-05-23T03:59:31;68816.20;;;11.65;100.00
22930;BME280;11630;42.660;23.292;2023-05-23T04:02:03;68814.84;;;11.58;100.00
22930;BME280;11630;42.660;23.292;2023-05-23T04:04:34;68815.39;;;11.61;100.00
22930;BME280;11630;42.660;23.292;2023-05-23T04:07:05;68822.46;;;11.65;100.00
22930;BME280;11630;42.660;23.292;2023-05-23T04:09:35;68827.63;;;11.73;100.00
22930;BME280;11630;42.660;23.292;2023-05-23T04:12:05;68848.34;;;11.90;100.00
22930;BME280;11630;42.660;23.292;2023-05-23T04:14:36;68842.08;;;11.83;100.00
22930;BME280;11630;42.660;23.292;2023-05-23T04:17:08;68846.16;;;11.85;100.00
22930;BME280;11630;42.660;23.292;2023-05-23T04:19:38;68846.69;;;11.91;100.00
22930;BME280;11630;42.660;23.292;2023-05-23T04:22:09;68847.52;;;11.93;100.00
22930;BME280;11630;42.660;23.292;2023-05-23T04:24:39;68856.77;;;11.99;100.00
22930;BME280;11630;42.660;23.292;2023-05-23T04:27:09;68870.67;;;12.13;100.00
22930;BME280;11630;42.660;23.292;2023-05-23T04:29:40;68856.49;;;12.00;100.00
22930;BME280;11630;42.660;23.292;2023-05-23T04:32:10;68852.95;;;11.93;100.00
22930;BME280;11630;42.660;23.292;2023-05-23T04:34:40;68852.69;;;11.94;100.00
22930;BME280;11630;42.660;23.292;2023-05-23T04:37:11;68863.59;;;12.04;100.00
22930;BME280;11630;42.660;23.292;2023-05-23T04:39:41;68860.86;;;12.04;100.00
22930;BME280;11630;42.660;23.292;2023-05-23T04:42:12;68855.95;;;11.97;100.00
22930;BME280;11630;42.660;23.292;2023-05-23T04:44:43;68873.64;;;12.09;100.00
22930;BME280;11630;42.660;23.292;2023-05-23T04:47:14;68872.56;;;12.13;100.00
22930;BME280;11630;42.660;23.292;2023-05-23T04:49:45;68884.55;;;12.12;100.00
22930;BME280;11630;42.660;23.292;2023-05-23T04:52:16;68876.11;;;12.20;100.00
22930;BME280;11630;42.660;23.292;2023-05-23T04:54:47;68897.90;;;12.32;100.00
22930;BME280;11630;42.660;23.292;2023-05-23T04:57:18;68914.78;;;12.50;100.00
22930;BME280;11630;42.660;23.292;2023-05-23T04:59:49;68942.03;;;12.75;100.00
22930;BME280;11630;42.660;23.292;2023-05-23T05:02:20;68961.40;;;12.92;100.00
22930;BME280;11630;42.660;23.292;2023-05-23T05:04:51;68931.95;;;12.62;100.00
22930;BME280;11630;42.660;23.292;2023-05-23T05:07:23;68907.70;;;12.46;100.00
22930;BME280;11630;42.660;23.292;2023-05-23T05:09:53;68918.33;;;12.52;100.00
22930;BME280;11630;42.660;23.292;2023-05-23T05:12:22;68910.98;;;12.49;100.00
22930;BME280;11630;42.660;23.292;2023-05-23T05:14:52;68911.25;;;12.48;100.00
22930;BME280;11630;42.660;23.292;2023-05-23T05:17:23;68906.35;;;12.41;100.00
22930;BME280;11630;42.660;23.292;2023-05-23T05:19:54;68941.50;;;12.75;100.00
22930;BME280;11630;42.660;23.292;2023-05-23T05:22:25;68960.59;;;12.92;100.00
22930;BME280;11630;42.660;23.292;2023-05-23T05:24:56;68987.57;;;13.18;100.00
22930;BME280;11630;42.660;23.292;2023-05-23T05:27:27;68986.22;;;13.13;100.00
22930;BME280;11630;42.660;23.292;2023-05-23T05:29:58;68983.22;;;13.11;100.00
22930;BME280;11630;42.660;23.292;2023-05-23T05:32:31;69000.94;;;13.26;100.00
22930;BME280;11630;42.660;23.292;2023-05-23T05:35:04;68990.03;;;13.14;100.00
22930;BME280;11630;42.660;23.292;2023-05-23T05:37:35;68973.95;;;12.96;100.00
22930;BME280;11630;42.660;23.292;2023-05-23T05:40:07;68976.95;;;13.07;100.00
22930;BME280;11630;42.660;23.292;2023-05-23T05:42:37;68982.95;;;13.15;100.00
22930;BME280;11630;42.660;23.292;2023-05-23T05:45:08;69030.13;;;13.52;100.00
22930;BME280;11630;42.660;23.292;2023-05-23T05:47:38;69048.09;;;13.76;100.00
22930;BME280;11630;42.660;23.292;2023-05-23T05:50:09;69058.19;;;13.83;100.00
22930;BME280;11630;42.660;23.292;2023-05-23T05:52:40;69065.03;;;13.88;100.00
22930;BME280;11630;42.660;23.292;2023-05-23T05:55:12;69080.03;;;14.03;100.00
22930;BME280;11630;42.660;23.292;2023-05-23T05:57:41;69112.52;;;14.24;100.00
22930;BME280;11630;42.660;23.292;2023-05-23T06:00:13;69099.42;;;14.17;100.00
22930;BME280;11630;42.660;23.292;2023-05-23T06:02:46;69103.78;;;14.26;100.00
22930;BME280;11630;42.660;23.292;2023-05-23T06:05:18;69128.08;;;14.37;100.00
22930;BME280;11630;42.660;23.292;2023-05-23T06:07:49;69122.06;;;14.34;100.00
22930;BME280;11630;42.660;23.292;2023-05-23T06:10:20;69056.02;;;13.72;100.00
22930;BME280;11630;42.660;23.292;2023-05-23T06:12:50;69054.11;;;13.76;100.00
22930;BME280;11630;42.660;23.292;2023-05-23T06:15:20;69060.66;;;13.82;100.00
22930;BME280;11630;42.660;23.292;2023-05-23T06:17:53;69033.93;;;13.58;100.00
22930;BME280;11630;42.660;23.292;2023-05-23T06:20:24;69015.13;;;13.37;100.00
22930;BME280;11630;42.660;23.292;2023-05-23T06:22:54;69020.57;;;13.52;100.00
22930;BME280;11630;42.660;23.292;2023-05-23T06:25:24;69072.38;;;13.91;100.00
22930;BME280;11630;42.660;23.292;2023-05-23T06:27:54;69108.41;;;14.29;100.00
22930;BME280;11630;42.660;23.292;2023-05-23T06:30:26;69129.16;;;14.51;100.00
22930;BME280;11630;42.660;23.292;2023-05-23T06:32:57;69162.73;;;14.75;100.00
22930;BME280;11630;42.660;23.292;2023-05-23T06:35:28;69162.74;;;14.72;100.00
22930;BME280;11630;42.660;23.292;2023-05-23T06:37:59;69176.95;;;14.80;100.00
22930;BME280;11630;42.660;23.292;2023-05-23T06:40:31;69178.02;;;14.89;100.00
22930;BME280;11630;42.660;23.292;2023-05-23T06:43:02;69192.23;;;14.97;100.00
22930;BME280;11630;42.660;23.292;2023-05-23T06:45:34;69209.44;;;15.14;100.00
22930;BME280;11630;42.660;23.292;2023-05-23T06:48:05;69256.69;;;15.60;100.00
22930;BME280;11630;42.660;23.292;2023-05-23T06:50:35;69218.73;;;15.25;100.00
22930;BME280;11630;42.660;23.292;2023-05-23T06:53:05;69231.02;;;15.37;100.00
22930;BME280;11630;42.660;23.292;2023-05-23T06:55:36;69274.44;;;15.78;100.00
22930;BME280;11630;42.660;23.292;2023-05-23T06:58:07;69284.31;;;15.74;100.00
22930;BME280;11630;42.660;23.292;2023-05-23T07:00:38;69268.17;;;15.73;100.00
22930;BME280;11630;42.660;23.292;2023-05-23T07:03:09;69272.28;;;15.73;100.00
22930;BME280;11630;42.660;23.292;2023-05-23T07:05:40;69254.52;;;15.58;100.00
22930;BME280;11630;42.660;23.292;2023-05-23T07:08:11;69261.88;;;15.71;100.00
22930;BME280;11630;42.660;23.292;2023-05-23T07:10:42;69314.91;;;16.15;100.00
22930;BME280;11630;42.660;23.292;2023-05-23T07:13:13;69362.45;;;16.63;100.00
22930;BME280;11630;42.660;23.292;2023-05-23T07:15:46;69427.28;;;17.20;100.00
22930;BME280;11630;42.660;23.292;2023-05-23T07:18:16;69431.41;;;17.15;100.00
22930;BME280;11630;42.660;23.292;2023-05-23T07:20:46;69455.50;;;17.37;100.00
22930;BME280;11630;42.660;23.292;2023-05-23T07:23:17;69470.01;;;17.52;100.00
22930;BME280;11630;42.660;23.292;2023-05-23T07:25:47;69401.59;;;16.90;100.00
22930;BME280;11630;42.660;23.292;2023-05-23T07:28:19;69486.44;;;17.64;100.00
22930;BME280;11630;42.660;23.292;2023-05-23T07:30:49;69570.83;;;18.31;100.00
22930;BME280;11630;42.660;23.292;2023-05-23T07:33:20;69526.92;;;18.06;100.00
22930;BME280;11630;42.660;23.292;2023-05-23T07:35:52;69520.08;;;18.01;100.00
22930;BME280;11630;42.660;23.292;2023-05-23T07:38:23;69536.81;;;18.10;100.00
22930;BME280;11630;42.660;23.292;2023-05-23T07:40:56;69577.07;;;18.45;100.00
22930;BME280;11630;42.660;23.292;2023-05-23T07:43:27;69560.38;;;18.29;100.00
22930;BME280;11630;42.660;23.292;2023-05-23T07:45:58;69625.80;;;18.94;100.00
22930;BME280;11630;42.660;23.292;2023-05-23T07:48:28;69583.35;;;18.57;100.00
22930;BME280;11630;42.660;23.292;2023-05-23T07:50:59;69686.97;;;19.43;100.00
22930;BME280;11630;42.660;23.292;2023-05-23T07:53:28;69707.80;;;19.65;100.00
22930;BME280;11630;42.660;23.292;2023-05-23T07:55:59;69677.91;;;19.39;100.00
22930;BME280;11630;42.660;23.292;2023-05-23T07:58:29;69710.01;;;19.62;100.00
22930;BME280;11630;42.660;23.292;2023-05-23T08:00:59;69739.05;;;19.91;100.00
22930;BME280;11630;42.660;23.292;2023-05-23T08:03:34;69684.52;;;19.40;100.00
22930;BME280;11630;42.660;23.292;2023-05-23T08:06:00;69702.84;;;19.63;100.00
22930;BME280;11630;42.660;23.292;2023-05-23T08:08:31;69784.03;;;20.31;100.00
22930;BME280;11630;42.660;23.292;2023-05-23T08:11:02;69778.02;;;20.26;100.00
22930;BME280;11630;42.660;23.292;2023-05-23T08:13:33;69791.70;;;20.43;100.00
22930;BME280;11630;42.660;23.292;2023-05-23T08:16:04;69760.13;;;20.18;100.00
22930;BME280;11630;42.660;23.292;2023-05-23T08:18:34;69829.64;;;20.65;100.00
22930;BME280;11630;42.660;23.292;2023-05-23T08:21:05;69824.08;;;20.70;100.00
22930;BME280;11630;42.660;23.292;2023-05-23T08:23:36;69826.86;;;20.68;100.00
22930;BME280;11630;42.660;23.292;2023-05-23T08:26:10;69840.56;;;20.85;100.00
22930;BME280;11630;42.660;23.292;2023-05-23T08:31:24;69883.52;;;21.04;100.00
22930;BME280;11630;42.660;23.292;2023-05-23T08:33:56;69866.97;;;20.99;100.00
22930;BME280;11630;42.660;23.292;2023-05-23T08:36:29;69872.45;;;21.06;100.00
22930;BME280;11630;42.660;23.292;2023-05-23T08:39:02;69885.58;;;21.26;100.00
22930;BME280;11630;42.660;23.292;2023-05-23T08:41:33;69849.91;;;20.91;100.00
22930;BME280;11630;42.660;23.292;2023-05-23T08:44:05;69832.34;;;20.75;100.00
22930;BME280;11630;42.660;23.292;2023-05-23T08:46:38;69878.16;;;21.20;100.00
22930;BME280;11630;42.660;23.292;2023-05-23T08:49:12;69859.22;;;21.02;100.00
22930;BME280;11630;42.660;23.292;2023-05-23T08:51:45;69934.88;;;21.49;100.00
22930;BME280;11630;42.660;23.292;2023-05-23T08:54:18;69963.61;;;21.91;100.00
22930;BME280;11630;42.660;23.292;2023-05-23T08:56:54;69975.45;;;21.98;97.86
22930;BME280;11630;42.660;23.292;2023-05-23T08:59:26;69936.48;;;21.53;100.00
22930;BME280;11630;42.660;23.292;2023-05-23T09:02:00;69911.94;;;21.47;100.00
22930;BME280;11630;42.660;23.292;2023-05-23T09:04:37;69974.58;;;22.01;97.36
22930;BME280;11630;42.660;23.292;2023-05-23T09:07:08;69989.80;;;22.01;97.81
22930;BME280;11630;42.660;23.292;2023-05-23T09:09:41;70050.34;;;22.80;71.28
22930;BME280;11630;42.660;23.292;2023-05-23T09:12:14;70050.34;;;22.80;71.28
22930;BME280;11630;42.660;23.292;2023-05-23T09:14:49;70109.77;;;23.28;72.17
22930;BME280;11630;42.660;23.292;2023-05-23T09:17:23;70141.58;;;23.38;69.49
22930;BME280;11630;42.660;23.292;2023-05-23T09:19:55;70130.23;;;23.37;67.64
22930;BME280;11630;42.660;23.292;2023-05-23T09:22:29;70141.38;;;23.58;63.78
22930;BME280;11630;42.660;23.292;2023-05-23T09:25:04;70154.63;;;23.65;63.43
22930;BME280;11630;42.660;23.292;2023-05-23T09:27:35;70151.02;;;23.66;63.71
22930;BME280;11630;42.660;23.292;2023-05-23T09:30:10;70215.98;;;24.22;61.44
22930;BME280;11630;42.660;23.292;2023-05-23T09:32:41;70184.36;;;23.92;63.27
22930;BME280;11630;42.660;23.292;2023-05-23T09:35:11;70201.72;;;24.04;59.19
22930;BME280;11630;42.660;23.292;2023-05-23T09:37:56;70135.09;;;23.49;58.83
22930;BME280;11630;42.660;23.292;2023-05-23T09:40:32;70156.44;;;23.49;58.90
22930;BME280;11630;42.660;23.292;2023-05-23T09:43:04;70136.17;;;23.52;56.85
22930;BME280;11630;42.660;23.292;2023-05-23T09:45:35;70159.18;;;23.54;54.91
22930;BME280;11630;42.660;23.292;2023-05-23T09:48:10;70162.06;;;23.71;55.15
22930;BME280;11630;42.660;23.292;2023-05-23T09:50:39;70224.06;;;24.18;54.29
22930;BME280;11630;42.660;23.292;2023-05-23T09:53:10;70195.92;;;24.00;49.35
22930;BME280;11630;42.660;23.292;2023-05-23T09:55:40;70234.80;;;24.26;51.74
22930;BME280;11630;42.660;23.292;2023-05-23T09:58:11;70224.80;;;24.27;51.92
22930;BME280;11630;42.660;23.292;2023-05-23T10:00:42;70290.84;;;24.89;52.70
22930;BME280;11630;42.660;23.292;2023-05-23T10:03:17;70263.77;;;24.75;50.57
22930;BME280;11630;42.660;23.292;2023-05-23T10:05:49;70242.19;;;24.39;48.38
22930;BME280;11630;42.660;23.292;2023-05-23T10:08:23;70212.11;;;24.18;49.53
22930;BME280;11630;42.660;23.292;2023-05-23T10:13:48;70300.31;;;24.88;46.91
22930;BME280;11630;42.660;23.292;2023-05-23T10:19:14;70288.50;;;25.00;44.51
22930;BME280;11630;42.660;23.292;2023-05-23T10:21:59;70318.60;;;24.94;43.96
22930;BME280;11630;42.660;23.292;2023-05-23T10:24:24;70337.80;;;25.19;45.80
22930;BME280;11630;42.660;23.292;2023-05-23T10:26:50;70304.06;;;25.01;45.40
22930;BME280;11630;42.660;23.292;2023-05-23T10:29:21;70257.08;;;24.50;46.89
22930;BME280;11630;42.660;23.292;2023-05-23T10:31:52;70274.09;;;24.71;45.50
22930;BME280;11630;42.660;23.292;2023-05-23T10:35:14;70351.28;;;25.33;45.12
22930;BME280;11630;42.660;23.292;2023-05-23T10:37:09;70425.21;;;25.92;44.72
22930;BME280;11630;42.660;23.292;2023-05-23T10:40:00;70419.81;;;26.01;42.82
22930;BME280;11630;42.660;23.292;2023-05-23T10:42:34;70416.70;;;25.83;42.06
22930;BME280;11630;42.660;23.292;2023-05-23T10:45:20;70508.20;;;26.65;38.38
22930;BME280;11630;42.660;23.292;2023-05-23T10:47:53;70446.56;;;26.24;40.12
22930;BME280;11630;42.660;23.292;2023-05-23T10:50:35;70512.89;;;26.71;41.56
22930;BME280;11630;42.660;23.292;2023-05-23T10:53:06;70482.02;;;26.43;41.50
22930;BME280;11630;42.660;23.292;2023-05-23T10:55:37;70447.52;;;26.13;40.38
22930;BME280;11630;42.660;23.292;2023-05-23T10:58:18;70480.54;;;26.50;38.84
22930;BME280;11630;42.660;23.292;2023-05-23T11:00:54;70549.82;;;27.07;39.23
22930;BME280;11630;42.660;23.292;2023-05-23T11:03:35;70577.95;;;27.32;38.03
22930;BME280;11630;42.660;23.292;2023-05-23T11:06:06;70549.86;;;27.04;37.34
22930;BME280;11630;42.660;23.292;2023-05-23T11:08:41;70576.50;;;27.37;38.63
22930;BME280;11630;42.660;23.292;2023-05-23T11:11:12;70614.69;;;27.64;37.99
22930;BME280;11630;42.660;23.292;2023-05-23T11:13:58;70631.02;;;27.75;36.58
22930;BME280;11630;42.660;23.292;2023-05-23T11:16:39;70519.50;;;26.77;38.53
22930;BME280;11630;42.660;23.292;2023-05-23T11:19:25;70631.27;;;27.76;38.56
22930;BME280;11630;42.660;23.292;2023-05-23T11:22:07;70494.34;;;26.60;39.49
22930;BME280;11630;42.660;23.292;2023-05-23T11:24:54;70503.52;;;26.62;37.91
22930;BME280;11630;42.660;23.292;2023-05-23T11:27:32;70506.63;;;26.80;36.49
22930;BME280;11630;42.660;23.292;2023-05-23T11:30:21;70590.17;;;27.38;36.29
22930;BME280;11630;42.660;23.292;2023-05-23T11:32:59;70646.14;;;27.92;36.45
22930;BME280;11630;42.660;23.292;2023-05-23T11:35:37;70549.53;;;27.08;37.78
22930;BME280;11630;42.660;23.292;2023-05-23T11:40:47;70596.13;;;27.51;35.19
22930;BME280;11630;42.660;23.292;2023-05-23T11:43:19;70652.72;;;28.01;34.82
22930;BME280;11630;42.660;23.292;2023-05-23T11:45:55;70463.52;;;26.28;36.75
22930;BME280;11630;42.660;23.292;2023-05-23T11:48:25;70463.12;;;26.39;37.03
22930;BME280;11630;42.660;23.292;2023-05-23T11:51:04;70523.56;;;26.87;37.57
22930;BME280;11630;42.660;23.292;2023-05-23T11:53:38;70507.06;;;26.91;36.86
22930;BME280;11630;42.660;23.292;2023-05-23T11:56:07;70509.07;;;26.86;36.58
22930;BME280;11630;42.660;23.292;2023-05-23T11:58:41;70633.20;;;27.79;35.96
22930;BME280;11630;42.660;23.292;2023-05-23T12:01:13;70577.66;;;27.33;36.16
22930;BME280;11630;42.660;23.292;2023-05-23T12:03:49;70692.76;;;28.38;33.82
22930;BME280;11630;42.660;23.292;2023-05-23T12:06:25;70720.14;;;28.59;34.10
22930;BME280;11630;42.660;23.292;2023-05-23T12:08:58;70523.34;;;26.83;36.59
22930;BME280;11630;42.660;23.292;2023-05-23T12:11:30;70500.76;;;26.81;36.55
22930;BME280;11630;42.660;23.292;2023-05-23T12:14:00;70560.24;;;27.21;36.76
22930;BME280;11630;42.660;23.292;2023-05-23T12:16:41;70447.38;;;26.26;36.60
22930;BME280;11630;42.660;23.292;2023-05-23T12:19:04;70391.50;;;25.93;37.88
22930;BME280;11630;42.660;23.292;2023-05-23T12:21:45;70531.09;;;26.87;35.38
22930;BME280;11630;42.660;23.292;2023-05-23T12:24:21;70624.00;;;27.77;34.52
22930;BME280;11630;42.660;23.292;2023-05-23T12:27:01;70600.58;;;27.52;34.48
22930;BME280;11630;42.660;23.292;2023-05-23T12:29:33;70497.58;;;26.68;35.29
22930;BME280;11630;42.660;23.292;2023-05-23T12:32:05;70552.27;;;27.13;35.78
22930;BME280;11630;42.660;23.292;2023-05-23T12:34:40;70559.79;;;27.13;36.23
22930;BME280;11630;42.660;23.292;2023-05-23T12:37:12;70524.17;;;26.82;36.27
22930;BME280;11630;42.660;23.292;2023-05-23T12:39:42;70568.87;;;27.23;36.01
22930;BME280;11630;42.660;23.292;2023-05-23T12:42:12;70533.72;;;27.02;36.43
22930;BME280;11630;42.660;23.292;2023-05-23T12:44:48;70640.03;;;27.89;35.07
22930;BME280;11630;42.660;23.292;2023-05-23T12:47:17;70629.30;;;27.78;35.30
22930;BME280;11630;42.660;23.292;2023-05-23T12:49:47;70620.95;;;27.76;33.89
22930;BME280;11630;42.660;23.292;2023-05-23T12:52:18;70541.90;;;26.93;36.81
22930;BME280;11630;42.660;23.292;2023-05-23T12:54:49;70566.93;;;27.22;35.43
22930;BME280;11630;42.660;23.292;2023-05-23T12:57:20;70654.98;;;28.00;34.30
22930;BME280;11630;42.660;23.292;2023-05-23T12:59:50;70630.29;;;27.87;34.28
22930;BME280;11630;42.660;23.292;2023-05-23T13:02:21;70669.32;;;28.13;33.37
22930;BME280;11630;42.660;23.292;2023-05-23T13:04:51;70679.78;;;28.25;32.33
22930;BME280;11630;42.660;23.292;2023-05-23T13:07:22;70734.53;;;28.88;32.45
22930;BME280;11630;42.660;23.292;2023-05-23T13:09:54;70622.28;;;27.81;33.72
22930;BME280;11630;42.660;23.292;2023-05-23T13:12:25;70711.05;;;28.49;30.81
22930;BME280;11630;42.660;23.292;2023-05-23T13:14:56;70735.80;;;28.79;31.03
22930;BME280;11630;42.660;23.292;2023-05-23T13:17:26;70704.57;;;28.71;31.29
22930;BME280;11630;42.660;23.292;2023-05-23T13:19:58;70711.02;;;28.52;30.33
22930;BME280;11630;42.660;23.292;2023-05-23T13:22:29;70704.93;;;28.46;31.69
22930;BME280;11630;42.660;23.292;2023-05-23T13:24:59;70730.33;;;28.69;31.33
22930;BME280;11630;42.660;23.292;2023-05-23T13:27:30;70719.86;;;28.57;30.80